Time;durP1;ratioP1;P1;durP2;ratioP2;P2;SDS_P1;SDS_P2;PMS_P1;PMS_P2;Temp;Humidity;BMP_temperature;BMP_pressure;BME280_temperature;BME280_humidity;BME280_pressure;Samples;Min_cycle;Max_cycle;Signal;HPM_P1;HPM_P2
2023/10/11 00:00:24;;;;;;;17.63;9.20;;;;;;;;;;5015643;28;20567;-79
2023/10/11 00:02:49;;;;;;;14.00;7.83;;;;;;;;;;4999259;28;20211;-79
2023/10/11 00:05:17;;;;;;;16.60;8.97;;;;;;;;;;4999584;28;20243;-79
2023/10/11 00:07:44;;;;;;;13.87;8.10;;;;;;;;;;5014862;28;20667;-79
2023/10/11 00:10:11;;;;;;;16.27;8.80;;;;;;;;;;5001038;28;20278;-79
2023/10/11 00:12:41;;;;;;;12.47;6.87;;;;;;;;;;5000807;28;20483;-79
2023/10/11 00:15:11;;;;;;;12.43;7.20;;;;;;;;;;4986073;28;20197;-79
2023/10/11 00:17:37;;;;;;;12.00;6.53;;;;;;;;;;4981418;28;20275;-79
2023/10/11 00:20:19;;;;;;;10.57;6.47;;;;;;;;;;4998298;28;20191;-79
2023/10/11 00:22:46;;;;;;;15.60;8.03;;;;;;;;;;4986763;28;20220;-79
2023/10/11 00:25:23;;;;;;;13.43;8.03;;;;;;;;;;5001349;28;20618;-79
2023/10/11 00:27:50;;;;;;;14.33;8.20;;;;;;;;;;5003874;28;20190;-79
2023/10/11 00:30:17;;;;;;;18.73;8.67;;;;;;;;;;5012870;28;20209;-78
2023/10/11 00:32:47;;;;;;;17.80;8.83;;;;;;;;;;4994625;28;20180;-79
2023/10/11 00:35:19;;;;;;;23.37;10.90;;;;;;;;;;5015418;28;20191;-79
2023/10/11 00:37:47;;;;;;;23.33;9.70;;;;;;;;;;4980765;28;20283;-79
2023/10/11 00:40:14;;;;;;;18.77;8.27;;;;;;;;;;4979040;28;20215;-79
2023/10/11 00:42:43;;;;;;;11.53;6.63;;;;;;;;;;5001279;28;20248;-79
2023/10/11 00:45:09;;;;;;;13.83;6.90;;;;;;;;;;5007942;28;20208;-79
2023/10/11 00:47:40;;;;;;;20.53;8.90;;;;;;;;;;4981420;28;20682;-79
2023/10/11 00:50:14;;;;;;;15.57;7.90;;;;;;;;;;5001553;28;20195;-79
2023/10/11 00:52:42;;;;;;;11.30;6.43;;;;;;;;;;4972773;28;20219;-79
2023/10/11 00:55:17;;;;;;;10.33;6.73;;;;;;;;;;4991401;28;20572;-79
2023/10/11 00:57:45;;;;;;;12.93;7.07;;;;;;;;;;4976190;28;20281;-79
2023/10/11 01:00:13;;;;;;;12.13;6.17;;;;;;;;;;5015498;28;20316;-79
2023/10/11 01:02:40;;;;;;;12.67;6.03;;;;;;;;;;4993323;28;20225;-79
2023/10/11 01:05:06;;;;;;;10.00;6.23;;;;;;;;;;4990857;28;20189;-78
2023/10/11 01:07:33;;;;;;;12.37;6.87;;;;;;;;;;4999186;28;20684;-78
2023/10/11 01:09:59;;;;;;;12.17;6.40;;;;;;;;;;4998075;28;20643;-78
2023/10/11 01:12:25;;;;;;;11.77;6.73;;;;;;;;;;5014110;28;20305;-79
2023/10/11 01:14:57;;;;;;;13.10;7.17;;;;;;;;;;5000706;28;20648;-79
2023/10/11 01:17:24;;;;;;;16.00;8.33;;;;;;;;;;5006378;28;20642;-79
2023/10/11 01:19:51;;;;;;;13.73;8.20;;;;;;;;;;5010749;28;20649;-79
2023/10/11 01:22:18;;;;;;;19.37;8.77;;;;;;;;;;5023221;28;20213;-79
2023/10/11 01:24:48;;;;;;;11.63;7.73;;;;;;;;;;5016857;28;20189;-79
2023/10/11 01:27:15;;;;;;;14.43;6.97;;;;;;;;;;5001119;28;20217;-79
2023/10/11 01:29:42;;;;;;;15.20;7.40;;;;;;;;;;5001819;28;20266;-79
2023/10/11 01:32:09;;;;;;;16.73;7.93;;;;;;;;;;4987380;28;20259;-79
2023/10/11 01:34:35;;;;;;;16.03;7.40;;;;;;;;;;4984050;28;20194;-79
2023/10/11 01:37:02;;;;;;;11.57;5.93;;;;;;;;;;4999342;28;20195;-79
2023/10/11 01:39:32;;;;;;;11.30;6.83;;;;;;;;;;4997690;28;20191;-79
2023/10/11 01:41:59;;;;;;;12.47;6.90;;;;;;;;;;4989780;28;20302;-79
2023/10/11 01:44:25;;;;;;;15.07;7.70;;;;;;;;;;5018339;28;20256;-79
2023/10/11 01:46:52;;;;;;;11.93;7.10;;;;;;;;;;5009421;28;20670;-79
2023/10/11 01:49:18;;;;;;;13.90;7.17;;;;;;;;;;4998820;28;20202;-79
2023/10/11 01:51:48;;;;;;;11.87;6.93;;;;;;;;;;4997235;28;20591;-79
2023/10/11 01:54:15;;;;;;;11.80;6.50;;;;;;;;;;5013550;28;20191;-79
2023/10/11 01:56:42;;;;;;;12.13;6.40;;;;;;;;;;5004668;28;20906;-79
2023/10/11 01:59:12;;;;;;;11.83;6.10;;;;;;;;;;5020630;28;20186;-79
2023/10/11 02:01:43;;;;;;;15.13;7.50;;;;;;;;;;4983614;28;20214;-79
2023/10/11 02:04:16;;;;;;;12.70;6.90;;;;;;;;;;4981116;28;20211;-80
2023/10/11 02:06:42;;;;;;;12.63;6.87;;;;;;;;;;4985720;28;20184;-79
2023/10/11 02:09:09;;;;;;;10.93;6.60;;;;;;;;;;4985183;28;20184;-79
2023/10/11 02:11:36;;;;;;;10.03;5.50;;;;;;;;;;4987185;28;20210;-79
2023/10/11 02:14:03;;;;;;;9.93;5.63;;;;;;;;;;5020068;28;20183;-79
2023/10/11 02:16:30;;;;;;;11.60;6.27;;;;;;;;;;5008453;28;20264;-79
2023/10/11 02:18:59;;;;;;;12.13;6.43;;;;;;;;;;5000021;28;20179;-80
2023/10/11 02:21:29;;;;;;;11.87;6.00;;;;;;;;;;4985514;28;20323;-80
2023/10/11 02:23:59;;;;;;;13.40;6.40;;;;;;;;;;4996334;28;20192;-80
2023/10/11 02:26:29;;;;;;;10.97;6.00;;;;;;;;;;5025595;28;20557;-80
2023/10/11 02:29:00;;;;;;;9.20;5.73;;;;;;;;;;5013544;28;20273;-79
2023/10/11 02:31:27;;;;;;;8.73;5.70;;;;;;;;;;5019701;28;20701;-79
2023/10/11 02:34:04;;;;;;;12.67;6.43;;;;;;;;;;5005951;28;20186;-79
2023/10/11 02:36:35;;;;;;;10.67;6.00;;;;;;;;;;4995316;28;20180;-79
2023/10/11 02:39:05;;;;;;;10.90;6.07;;;;;;;;;;5017396;28;20187;-79
2023/10/11 02:41:32;;;;;;;11.27;6.27;;;;;;;;;;5007347;28;20667;-79
2023/10/11 02:44:01;;;;;;;10.53;5.90;;;;;;;;;;5011212;28;20202;-79
2023/10/11 02:46:28;;;;;;;10.23;5.93;;;;;;;;;;5027430;28;20182;-79
2023/10/11 02:49:04;;;;;;;11.30;6.23;;;;;;;;;;5019902;28;20609;-79
2023/10/11 02:51:32;;;;;;;11.20;6.00;;;;;;;;;;5022409;28;20216;-79
2023/10/11 02:53:59;;;;;;;10.90;6.53;;;;;;;;;;4999646;28;20669;-79
2023/10/11 02:56:25;;;;;;;13.17;6.23;;;;;;;;;;4996067;28;20188;-79
2023/10/11 02:58:52;;;;;;;10.07;5.80;;;;;;;;;;5012587;28;20179;-79
2023/10/11 03:01:20;;;;;;;9.77;6.20;;;;;;;;;;5009299;28;20310;-79
2023/10/11 03:03:48;;;;;;;11.43;5.90;;;;;;;;;;4995420;28;20183;-79
2023/10/11 03:06:14;;;;;;;10.00;5.90;;;;;;;;;;4995212;28;20214;-79
2023/10/11 03:08:40;;;;;;;13.97;6.10;;;;;;;;;;4997580;28;20205;-79
2023/10/11 03:11:15;;;;;;;14.33;6.50;;;;;;;;;;4988861;28;20378;-79
2023/10/11 03:13:43;;;;;;;10.63;5.83;;;;;;;;;;4995354;28;20186;-79
2023/10/11 03:16:13;;;;;;;10.03;5.83;;;;;;;;;;5015838;28;20674;-79
2023/10/11 03:18:40;;;;;;;11.50;6.30;;;;;;;;;;5018621;28;20181;-79
2023/10/11 03:23:45;;;;;;;10.97;5.40;;;;;;;;;;4995191;28;20183;-79
2023/10/11 03:26:31;;;;;;;9.87;6.23;;;;;;;;;;5017705;28;20570;-79
2023/10/11 03:29:05;;;;;;;16.80;6.50;;;;;;;;;;5003775;28;20195;-79
2023/10/11 03:31:40;;;;;;;11.70;6.50;;;;;;;;;;4981988;28;20555;-79
2023/10/11 03:34:14;;;;;;;11.63;6.13;;;;;;;;;;5020032;28;20182;-80
2023/10/11 03:36:51;;;;;;;12.53;6.47;;;;;;;;;;5011764;28;20182;-79
2023/10/11 03:44:53;;;;;;;12.23;6.53;;;;;;;;;;5003827;28;20295;-79
2023/10/11 03:47:31;;;;;;;10.93;6.23;;;;;;;;;;5024537;28;20187;-79
2023/10/11 03:49:58;;;;;;;11.90;5.90;;;;;;;;;;5010660;28;20582;-79
2023/10/11 03:52:25;;;;;;;16.97;6.33;;;;;;;;;;5011223;28;20203;-79
2023/10/11 03:55:10;;;;;;;13.07;6.60;;;;;;;;;;5003103;28;20639;-79
2023/10/11 03:57:45;;;;;;;11.07;6.27;;;;;;;;;;4997831;28;20175;-79
2023/10/11 04:00:25;;;;;;;12.37;6.97;;;;;;;;;;5025568;28;20274;-78
2023/10/11 04:03:01;;;;;;;13.47;7.07;;;;;;;;;;5007391;28;20210;-80
2023/10/11 04:05:34;;;;;;;14.43;6.90;;;;;;;;;;5000757;28;20177;-79
2023/10/11 04:08:11;;;;;;;13.43;6.97;;;;;;;;;;5023215;28;20214;-79
2023/10/11 04:10:46;;;;;;;13.57;6.80;;;;;;;;;;4997649;28;20275;-79
2023/10/11 04:13:15;;;;;;;15.57;7.10;;;;;;;;;;5012870;28;20641;-79
2023/10/11 04:15:42;;;;;;;13.60;6.47;;;;;;;;;;4991740;28;20277;-79
2023/10/11 04:18:43;;;;;;;14.83;6.90;;;;;;;;;;4999641;28;20194;-79
2023/10/11 04:23:39;;;;;;;13.37;6.40;;;;;;;;;;5004527;28;20214;-79
2023/10/11 04:26:22;;;;;;;14.47;6.87;;;;;;;;;;4976972;28;20195;-80
2023/10/11 04:28:51;;;;;;;11.40;6.77;;;;;;;;;;5027086;28;20188;-79
2023/10/11 04:31:31;;;;;;;12.07;7.07;;;;;;;;;;5007223;28;20237;-79
2023/10/11 04:33:59;;;;;;;15.27;7.60;;;;;;;;;;5010051;28;20178;-79
2023/10/11 04:36:25;;;;;;;12.53;6.60;;;;;;;;;;4999523;28;20183;-79
2023/10/11 04:38:52;;;;;;;13.63;6.77;;;;;;;;;;5018289;28;20181;-79
2023/10/11 04:41:20;;;;;;;15.13;6.60;;;;;;;;;;5014304;28;20222;-79
2023/10/11 04:44:04;;;;;;;16.43;7.77;;;;;;;;;;5000341;28;20231;-80
2023/10/11 04:46:31;;;;;;;18.30;8.13;;;;;;;;;;4998316;28;20910;-79
2023/10/11 04:49:17;;;;;;;17.17;8.00;;;;;;;;;;4999892;28;20218;-79
2023/10/11 04:51:45;;;;;;;14.40;7.03;;;;;;;;;;5000268;28;20218;-80
2023/10/11 04:54:17;;;;;;;16.13;7.40;;;;;;;;;;5008073;28;20186;-79
2023/10/11 04:59:16;;;;;;;17.43;7.50;;;;;;;;;;5009494;28;20185;-79
2023/10/11 05:04:14;;;;;;;16.40;7.63;;;;;;;;;;5003914;28;20191;-79
2023/10/11 05:06:41;;;;;;;14.93;7.50;;;;;;;;;;5020477;28;20206;-79
2023/10/11 05:11:50;;;;;;;13.70;7.83;;;;;;;;;;5014130;28;20207;-79
2023/10/11 05:14:29;;;;;;;14.63;6.53;;;;;;;;;;5007343;28;20187;-79
2023/10/11 05:16:59;;;;;;;13.40;6.57;;;;;;;;;;5009143;28;20210;-79
2023/10/11 05:19:27;;;;;;;9.70;6.33;;;;;;;;;;5017360;28;20183;-79
2023/10/11 05:21:55;;;;;;;13.77;7.13;;;;;;;;;;5010405;28;20462;-79
2023/10/11 05:27:36;;;;;;;12.00;6.07;;;;;;;;;;4997487;28;20197;-78
2023/10/11 05:32:33;;;;;;;11.80;6.00;;;;;;;;;;4993067;28;20210;-79
2023/10/11 05:51:39;;;;;;;10.07;5.17;;;;;;;;;;4999956;28;20217;-77
2023/10/11 05:54:11;;;;;;;10.00;5.17;;;;;;;;;;5012355;28;20245;-79
2023/10/11 05:56:45;;;;;;;10.63;5.80;;;;;;;;;;5004329;28;20188;-76
2023/10/11 05:59:14;;;;;;;10.13;5.40;;;;;;;;;;5018967;28;20186;-78
2023/10/11 06:01:43;;;;;;;10.43;5.13;;;;;;;;;;5017023;28;20329;-76
2023/10/11 06:04:13;;;;;;;10.93;5.53;;;;;;;;;;5027841;28;20208;-77
2023/10/11 06:06:42;;;;;;;11.10;5.97;;;;;;;;;;5022096;28;20265;-76
2023/10/11 06:09:16;;;;;;;8.80;5.20;;;;;;;;;;4992200;28;20191;-77
2023/10/11 06:11:48;;;;;;;11.83;5.53;;;;;;;;;;5018642;28;20665;-77
2023/10/11 06:14:18;;;;;;;11.67;5.40;;;;;;;;;;4993007;28;20215;-77
2023/10/11 06:16:57;;;;;;;9.73;5.10;;;;;;;;;;5001005;28;20187;-76
2023/10/11 06:19:27;;;;;;;14.33;5.63;;;;;;;;;;5004939;28;20746;-76
2023/10/11 06:22:09;;;;;;;11.83;5.50;;;;;;;;;;5010818;28;20968;-77
2023/10/11 06:24:39;;;;;;;10.87;5.20;;;;;;;;;;5011354;28;20185;-79
2023/10/11 06:29:53;;;;;;;12.77;5.53;;;;;;;;;;5014902;28;20621;-79
2023/10/11 06:32:22;;;;;;;9.67;5.10;;;;;;;;;;5010705;28;20286;-79
2023/10/11 06:34:50;;;;;;;10.83;5.20;;;;;;;;;;5010481;28;20186;-79
2023/10/11 06:37:18;;;;;;;11.73;5.13;;;;;;;;;;5012748;28;20186;-79
2023/10/11 06:42:13;;;;;;;12.93;5.43;;;;;;;;;;5014388;28;20246;-79
2023/10/11 06:44:48;;;;;;;10.47;5.00;;;;;;;;;;5006049;28;20278;-79
2023/10/11 06:47:15;;;;;;;9.37;5.53;;;;;;;;;;5009135;28;20293;-79
2023/10/11 06:49:44;;;;;;;10.37;5.37;;;;;;;;;;5014051;28;20180;-78
2023/10/11 06:52:11;;;;;;;9.87;4.87;;;;;;;;;;5008933;28;20837;-78
2023/10/11 06:54:46;;;;;;;14.70;5.40;;;;;;;;;;5010871;28;20270;-79
2023/10/11 06:57:21;;;;;;;7.70;4.93;;;;;;;;;;4991035;28;20202;-79
2023/10/11 06:59:49;;;;;;;12.97;5.07;;;;;;;;;;5013417;28;20194;-79
2023/10/11 07:02:31;;;;;;;10.70;5.60;;;;;;;;;;5011953;28;20215;-80
2023/10/11 07:05:17;;;;;;;12.03;5.27;;;;;;;;;;5015925;28;20211;-80
2023/10/11 07:07:52;;;;;;;10.73;5.10;;;;;;;;;;4991925;28;20175;-79
2023/10/11 07:10:34;;;;;;;8.90;5.07;;;;;;;;;;5018797;28;20179;-78
2023/10/11 07:13:03;;;;;;;11.27;5.57;;;;;;;;;;5012220;28;20190;-79
2023/10/11 07:15:40;;;;;;;10.33;5.60;;;;;;;;;;5017468;28;20688;-77
2023/10/11 07:18:25;;;;;;;14.13;5.37;;;;;;;;;;5012703;28;20202;-77
2023/10/11 07:21:07;;;;;;;16.93;5.47;;;;;;;;;;4997121;28;20260;-79
2023/10/11 07:28:59;;;;;;;11.30;5.40;;;;;;;;;;5013452;28;20197;-78
2023/10/11 07:31:32;;;;;;;13.73;5.50;;;;;;;;;;4978566;28;20204;-79
2023/10/11 07:33:59;;;;;;;11.23;5.00;;;;;;;;;;5001733;28;20179;-78
2023/10/11 07:36:25;;;;;;;11.50;5.50;;;;;;;;;;5012950;28;20184;-79
2023/10/11 07:38:55;;;;;;;10.33;4.90;;;;;;;;;;4992579;28;20663;-79
2023/10/11 07:41:31;;;;;;;12.30;5.23;;;;;;;;;;5014907;28;20592;-78
2023/10/11 07:43:57;;;;;;;9.87;5.30;;;;;;;;;;5011989;28;20670;-77
2023/10/11 07:46:23;;;;;;;13.97;5.53;;;;;;;;;;5016140;28;20190;-78
2023/10/11 07:48:56;;;;;;;9.93;5.30;;;;;;;;;;4993673;28;20606;-78
2023/10/11 07:51:25;;;;;;;10.60;5.47;;;;;;;;;;5010203;28;20253;-78
2023/10/11 07:53:51;;;;;;;11.00;5.53;;;;;;;;;;4996975;28;20238;-78
2023/10/11 07:56:20;;;;;;;11.23;5.73;;;;;;;;;;4989930;28;20187;-79
2023/10/11 07:58:47;;;;;;;12.63;5.70;;;;;;;;;;4989502;28;20222;-78
2023/10/11 08:01:30;;;;;;;10.70;5.13;;;;;;;;;;5001612;28;20211;-77
2023/10/11 08:03:57;;;;;;;13.00;5.50;;;;;;;;;;5000627;28;20186;-78
2023/10/11 08:06:24;;;;;;;14.10;5.93;;;;;;;;;;5003140;28;20257;-78
2023/10/11 08:09:00;;;;;;;11.83;5.80;;;;;;;;;;4988035;28;20187;-79
2023/10/11 08:14:15;;;;;;;12.53;5.63;;;;;;;;;;5003991;28;20602;-80
2023/10/11 08:16:47;;;;;;;11.27;5.40;;;;;;;;;;5003065;28;20262;-78
2023/10/11 08:19:14;;;;;;;13.93;5.73;;;;;;;;;;5000394;28;20238;-78
2023/10/11 08:21:40;;;;;;;11.77;4.87;;;;;;;;;;4989485;28;20580;-79
2023/10/11 08:24:15;;;;;;;11.03;5.17;;;;;;;;;;5006517;28;20196;-80
2023/10/11 08:26:44;;;;;;;11.13;5.67;;;;;;;;;;5006702;28;20289;-79
2023/10/11 08:29:27;;;;;;;13.30;6.20;;;;;;;;;;4999398;28;20225;-79
2023/10/11 08:32:00;;;;;;;11.70;5.50;;;;;;;;;;5013162;28;20194;-79
2023/10/11 08:34:28;;;;;;;13.93;5.47;;;;;;;;;;5005756;28;20244;-81
2023/10/11 08:36:55;;;;;;;14.97;5.37;;;;;;;;;;4989953;28;20656;-79
2023/10/11 08:39:27;;;;;;;13.23;5.30;;;;;;;;;;5007676;28;20226;-80
2023/10/11 08:41:58;;;;;;;10.77;5.40;;;;;;;;;;5003184;28;20221;-80
2023/10/11 08:44:27;;;;;;;10.90;5.50;;;;;;;;;;4997005;28;20203;-81
2023/10/11 08:46:54;;;;;;;10.43;5.70;;;;;;;;;;4993718;28;20187;-78
2023/10/11 08:49:20;;;;;;;12.43;6.07;;;;;;;;;;4987998;28;20194;-78
2023/10/11 08:51:50;;;;;;;9.47;5.60;;;;;;;;;;5007846;28;20207;-78
2023/10/11 08:54:25;;;;;;;11.30;5.80;;;;;;;;;;5001178;28;20191;-78
2023/10/11 08:57:03;;;;;;;10.77;4.53;;;;;;;;;;5011889;28;20270;-79
2023/10/11 08:59:31;;;;;;;13.47;5.03;;;;;;;;;;5010883;28;20191;-80
2023/10/11 09:02:07;;;;;;;11.73;5.50;;;;;;;;;;5008294;28;20211;-79
2023/10/11 09:04:35;;;;;;;13.63;5.37;;;;;;;;;;5005892;28;20666;-79
2023/10/11 09:07:02;;;;;;;9.93;4.73;;;;;;;;;;5010879;28;20750;-80
2023/10/11 09:09:41;;;;;;;10.93;5.17;;;;;;;;;;5006874;28;20277;-79
2023/10/11 09:12:23;;;;;;;11.40;5.67;;;;;;;;;;5006207;28;20213;-79
2023/10/11 09:14:59;;;;;;;10.53;5.40;;;;;;;;;;5012463;28;20187;-78
2023/10/11 09:17:26;;;;;;;10.83;5.33;;;;;;;;;;5007313;28;20202;-78
2023/10/11 09:19:56;;;;;;;11.10;5.60;;;;;;;;;;5007754;28;20244;-79
2023/10/11 09:22:23;;;;;;;16.60;5.43;;;;;;;;;;5006213;28;20226;-78
2023/10/11 09:25:04;;;;;;;10.47;5.50;;;;;;;;;;5012382;28;20590;-79
2023/10/11 09:27:48;;;;;;;11.53;5.40;;;;;;;;;;5010602;28;20179;-80
2023/10/11 09:30:19;;;;;;;15.30;5.63;;;;;;;;;;5010464;28;20186;-79
2023/10/11 09:32:48;;;;;;;13.73;5.70;;;;;;;;;;4993464;28;20217;-79
2023/10/11 09:35:26;;;;;;;12.77;5.30;;;;;;;;;;4996371;28;20179;-79
2023/10/11 09:37:59;;;;;;;15.57;5.33;;;;;;;;;;5013167;28;20179;-79
2023/10/11 09:40:44;;;;;;;16.07;5.53;;;;;;;;;;5002832;28;20190;-79
2023/10/11 09:43:11;;;;;;;15.20;5.60;;;;;;;;;;5006837;28;20203;-78
2023/10/11 09:45:44;;;;;;;13.27;5.67;;;;;;;;;;5013089;28;20183;-79
2023/10/11 09:48:17;;;;;;;10.97;4.90;;;;;;;;;;4993051;28;20557;-79
2023/10/11 09:50:43;;;;;;;9.67;5.03;;;;;;;;;;5015075;28;20546;-78
2023/10/11 09:53:13;;;;;;;15.77;5.53;;;;;;;;;;5010424;28;20245;-79
2023/10/11 09:56:15;;;;;;;12.40;5.23;;;;;;;;;;5008206;28;20560;-83
2023/10/11 09:59:05;;;;;;;14.03;5.17;;;;;;;;;;4952686;28;20185;-80
2023/10/11 10:01:38;;;;;;;10.13;5.47;;;;;;;;;;4995656;28;20211;-80
2023/10/11 10:04:09;;;;;;;10.67;5.47;;;;;;;;;;4991941;28;20893;-82
2023/10/11 10:06:35;;;;;;;12.27;5.43;;;;;;;;;;5012294;28;20242;-80
2023/10/11 10:09:22;;;;;;;10.93;4.80;;;;;;;;;;4993087;28;20202;-79
2023/10/11 10:12:20;;;;;;;13.13;5.20;;;;;;;;;;5007946;28;20360;-78
2023/10/11 10:14:50;;;;;;;15.97;5.60;;;;;;;;;;5003202;28;20195;-79
2023/10/11 10:17:17;;;;;;;8.87;4.80;;;;;;;;;;5012426;28;20338;-80
2023/10/11 10:19:44;;;;;;;14.73;5.87;;;;;;;;;;5012067;28;20179;-80
2023/10/11 10:22:11;;;;;;;10.80;5.13;;;;;;;;;;5011392;28;20215;-80
2023/10/11 10:24:37;;;;;;;16.00;5.50;;;;;;;;;;5012223;28;20181;-81
2023/10/11 10:27:22;;;;;;;10.90;5.07;;;;;;;;;;4992628;28;20195;-80
2023/10/11 10:30:03;;;;;;;10.83;5.27;;;;;;;;;;5001850;28;20171;-78
2023/10/11 10:32:29;;;;;;;14.33;5.50;;;;;;;;;;5011972;28;20218;-81
2023/10/11 10:35:18;;;;;;;12.30;4.93;;;;;;;;;;4996961;28;20557;-81
2023/10/11 10:37:51;;;;;;;15.87;8.23;;;;;;;;;;4976024;28;20572;-82
2023/10/11 10:40:24;;;;;;;13.73;5.70;;;;;;;;;;5012276;28;20191;-80
2023/10/11 10:43:14;;;;;;;11.17;5.03;;;;;;;;;;4975786;28;20208;-83
2023/10/11 10:45:40;;;;;;;14.30;5.47;;;;;;;;;;4998754;28;20203;-81
2023/10/11 10:48:14;;;;;;;11.73;5.10;;;;;;;;;;4994760;28;20196;-82
2023/10/11 10:50:48;;;;;;;12.17;4.93;;;;;;;;;;5017932;28;20187;-82
2023/10/11 10:53:17;;;;;;;13.20;5.37;;;;;;;;;;4985012;28;20191;-82
2023/10/11 10:55:44;;;;;;;12.10;5.37;;;;;;;;;;4972385;28;20179;-82
2023/10/11 10:58:16;;;;;;;13.00;4.80;;;;;;;;;;4975288;28;20206;-82
2023/10/11 11:00:43;;;;;;;10.83;5.20;;;;;;;;;;5022721;28;20199;-82
2023/10/11 11:03:23;;;;;;;12.20;4.90;;;;;;;;;;5007781;28;20312;-82
2023/10/11 11:05:56;;;;;;;12.07;4.57;;;;;;;;;;5011518;28;21028;-82
2023/10/11 11:08:37;;;;;;;11.50;4.93;;;;;;;;;;4986635;28;20187;-82
2023/10/11 11:11:27;;;;;;;10.93;4.60;;;;;;;;;;4995890;28;20210;-82
2023/10/11 11:13:54;;;;;;;12.70;5.00;;;;;;;;;;4998624;28;20184;-82
2023/10/11 11:16:26;;;;;;;12.43;4.80;;;;;;;;;;5017089;28;20271;-82
2023/10/11 11:18:52;;;;;;;13.93;4.80;;;;;;;;;;5008945;28;20194;-82
2023/10/11 11:21:20;;;;;;;13.67;4.67;;;;;;;;;;5004934;28;20203;-82
2023/10/11 11:23:50;;;;;;;10.00;4.37;;;;;;;;;;5001622;28;20916;-82
2023/10/11 11:26:17;;;;;;;10.03;4.97;;;;;;;;;;5000790;28;20184;-82
2023/10/11 11:28:44;;;;;;;13.73;5.27;;;;;;;;;;5028563;28;20189;-82
2023/10/11 11:31:13;;;;;;;12.17;4.47;;;;;;;;;;5019310;28;20213;-85
2023/10/11 11:33:47;;;;;;;13.77;4.80;;;;;;;;;;4996645;28;20220;-82
2023/10/11 11:36:30;;;;;;;15.33;4.83;;;;;;;;;;4992845;28;20660;-82
2023/10/11 11:39:17;;;;;;;11.57;4.50;;;;;;;;;;4999156;28;20609;-82
2023/10/11 11:41:52;;;;;;;12.03;5.00;;;;;;;;;;4979659;28;20244;-82
2023/10/11 11:44:22;;;;;;;16.37;4.70;;;;;;;;;;4994911;28;20292;-82
2023/10/11 11:46:49;;;;;;;14.27;4.70;;;;;;;;;;5000249;28;20205;-83
2023/10/11 11:49:17;;;;;;;12.57;4.70;;;;;;;;;;4988200;28;20190;-83
2023/10/11 11:51:43;;;;;;;14.67;5.10;;;;;;;;;;4992696;28;20237;-82
2023/10/11 11:54:17;;;;;;;12.03;4.90;;;;;;;;;;4993955;28;20192;-82
2023/10/11 11:56:45;;;;;;;13.20;4.87;;;;;;;;;;4976279;28;20793;-82
2023/10/11 11:59:17;;;;;;;14.07;4.77;;;;;;;;;;5007344;28;20582;-82
2023/10/11 12:01:49;;;;;;;17.23;5.70;;;;;;;;;;4994637;28;20206;-82
2023/10/11 12:04:20;;;;;;;12.90;5.50;;;;;;;;;;5020328;28;20234;-83
2023/10/11 12:06:50;;;;;;;10.30;4.50;;;;;;;;;;5012106;28;20183;-82
2023/10/11 12:09:21;;;;;;;13.37;4.83;;;;;;;;;;5001817;28;20179;-82
2023/10/11 12:11:53;;;;;;;13.10;5.03;;;;;;;;;;4981275;28;20642;-83
2023/10/11 12:14:23;;;;;;;14.47;4.83;;;;;;;;;;4967303;28;20674;-83
2023/10/11 12:16:49;;;;;;;11.63;5.00;;;;;;;;;;4992271;28;20228;-82
2023/10/11 12:19:16;;;;;;;16.10;4.70;;;;;;;;;;5003597;28;20606;-82
2023/10/11 12:21:42;;;;;;;14.70;4.80;;;;;;;;;;5005144;28;20353;-82
2023/10/11 12:24:11;;;;;;;11.97;4.33;;;;;;;;;;4994708;28;20208;-82
2023/10/11 12:26:41;;;;;;;14.77;5.17;;;;;;;;;;5019966;28;20192;-83
2023/10/11 12:29:12;;;;;;;15.83;4.40;;;;;;;;;;5021129;28;20178;-84
2023/10/11 12:31:39;;;;;;;14.43;4.87;;;;;;;;;;5015644;28;20222;-84
2023/10/11 12:34:09;;;;;;;10.40;4.47;;;;;;;;;;4999347;28;20186;-82
2023/10/11 12:36:45;;;;;;;13.80;4.50;;;;;;;;;;4996570;28;20738;-81
2023/10/11 12:39:20;;;;;;;11.27;4.63;;;;;;;;;;4992307;28;20187;-84
2023/10/11 12:41:49;;;;;;;9.70;4.20;;;;;;;;;;4997641;28;20202;-84
2023/10/11 12:44:15;;;;;;;9.37;4.70;;;;;;;;;;4983325;28;20199;-84
2023/10/11 12:46:42;;;;;;;14.07;4.70;;;;;;;;;;5014350;28;20245;-84
2023/10/11 12:49:14;;;;;;;8.97;4.33;;;;;;;;;;4980299;28;20208;-84
2023/10/11 12:51:47;;;;;;;12.07;5.10;;;;;;;;;;4983974;28;20232;-84
2023/10/11 12:54:14;;;;;;;14.57;4.70;;;;;;;;;;4992548;28;20593;-84
2023/10/11 12:56:42;;;;;;;12.10;4.37;;;;;;;;;;4983726;28;20215;-83
2023/10/11 12:59:16;;;;;;;17.07;4.50;;;;;;;;;;5014208;28;20178;-84
2023/10/11 13:01:55;;;;;;;9.63;4.20;;;;;;;;;;4995348;28;20206;-84
2023/10/11 13:04:30;;;;;;;9.63;4.17;;;;;;;;;;4979978;28;20677;-84
2023/10/11 13:06:59;;;;;;;9.97;4.10;;;;;;;;;;4983589;28;20183;-84
2023/10/11 13:09:30;;;;;;;12.63;4.27;;;;;;;;;;4970958;28;20659;-85
2023/10/11 13:11:57;;;;;;;12.83;4.43;;;;;;;;;;4995006;28;20349;-84
2023/10/11 13:14:23;;;;;;;12.33;4.50;;;;;;;;;;5012809;28;20197;-84
2023/10/11 13:16:51;;;;;;;8.60;4.33;;;;;;;;;;4998646;28;20253;-84
2023/10/11 13:19:22;;;;;;;11.03;4.33;;;;;;;;;;4995628;28;20189;-84
2023/10/11 13:21:48;;;;;;;16.80;4.27;;;;;;;;;;4986253;28;20587;-84
2023/10/11 13:24:21;;;;;;;12.30;4.60;;;;;;;;;;4992746;28;21142;-84
2023/10/11 13:26:48;;;;;;;13.33;4.23;;;;;;;;;;4995020;28;20247;-84
2023/10/11 13:29:17;;;;;;;8.13;3.60;;;;;;;;;;4996817;28;20188;-84
2023/10/11 13:31:47;;;;;;;12.20;4.00;;;;;;;;;;4977952;28;20302;-84
2023/10/11 13:34:16;;;;;;;14.70;4.43;;;;;;;;;;5009534;28;20186;-84
2023/10/11 13:36:42;;;;;;;11.07;4.00;;;;;;;;;;4980010;28;20190;-84
2023/10/11 13:39:25;;;;;;;11.43;4.23;;;;;;;;;;5011665;28;20626;-84
2023/10/11 13:41:52;;;;;;;14.43;4.30;;;;;;;;;;5016564;28;20204;-85
2023/10/11 13:44:19;;;;;;;11.93;4.00;;;;;;;;;;5004702;28;20602;-84
2023/10/11 13:46:51;;;;;;;10.07;4.10;;;;;;;;;;4996881;28;20181;-84
2023/10/11 13:49:24;;;;;;;11.40;4.23;;;;;;;;;;4996861;28;20197;-84
2023/10/11 13:51:54;;;;;;;10.57;3.77;;;;;;;;;;5014905;28;20217;-84
2023/10/11 13:54:31;;;;;;;8.07;3.63;;;;;;;;;;4998973;28;20190;-84
2023/10/11 13:57:10;;;;;;;9.23;3.90;;;;;;;;;;4998598;28;20180;-84
2023/10/11 13:59:45;;;;;;;11.73;4.20;;;;;;;;;;5010637;28;20180;-84
2023/10/11 14:04:49;;;;;;;12.20;3.93;;;;;;;;;;4982449;28;20189;-84
2023/10/11 14:07:23;;;;;;;6.23;3.77;;;;;;;;;;4978332;28;20194;-84
2023/10/11 14:09:53;;;;;;;6.67;3.60;;;;;;;;;;4971238;28;20201;-84
2023/10/11 14:12:33;;;;;;;7.80;3.90;;;;;;;;;;4972314;28;20220;-84
2023/10/11 14:15:00;;;;;;;9.30;3.40;;;;;;;;;;5010835;28;20184;-84
2023/10/11 14:17:26;;;;;;;12.20;4.10;;;;;;;;;;4993871;28;20193;-84
2023/10/11 14:19:53;;;;;;;6.33;3.40;;;;;;;;;;5009007;28;20267;-83
2023/10/11 14:22:21;;;;;;;9.73;3.97;;;;;;;;;;4994570;28;20329;-84
2023/10/11 14:24:51;;;;;;;9.00;4.00;;;;;;;;;;4990905;28;20232;-84
2023/10/11 14:27:18;;;;;;;8.93;3.90;;;;;;;;;;4977000;28;20209;-84
2023/10/11 14:29:47;;;;;;;11.87;4.03;;;;;;;;;;5016060;28;20190;-83
2023/10/11 14:32:15;;;;;;;10.30;3.90;;;;;;;;;;4997017;28;20266;-84
2023/10/11 14:34:43;;;;;;;7.10;3.67;;;;;;;;;;5015506;28;20214;-83
2023/10/11 14:37:09;;;;;;;7.07;3.80;;;;;;;;;;4994198;28;20262;-84
2023/10/11 14:39:36;;;;;;;10.07;3.60;;;;;;;;;;4997471;28;20683;-83
2023/10/11 14:42:04;;;;;;;6.80;3.67;;;;;;;;;;4997592;28;20229;-83
2023/10/11 14:44:31;;;;;;;6.90;3.70;;;;;;;;;;4973766;28;20200;-83
2023/10/11 14:46:58;;;;;;;6.17;3.57;;;;;;;;;;4988020;28;20195;-83
2023/10/11 14:49:24;;;;;;;7.97;3.37;;;;;;;;;;4984220;28;20183;-83
2023/10/11 14:51:50;;;;;;;8.57;3.90;;;;;;;;;;5007112;28;20199;-84
2023/10/11 14:54:16;;;;;;;10.10;3.93;;;;;;;;;;4999890;28;20194;-84
2023/10/11 14:56:43;;;;;;;8.47;3.77;;;;;;;;;;4996727;28;20189;-84
2023/10/11 14:59:12;;;;;;;5.20;3.17;;;;;;;;;;5012011;28;20564;-83
2023/10/11 15:01:38;;;;;;;6.83;3.90;;;;;;;;;;4993756;28;20301;-83
2023/10/11 15:04:10;;;;;;;8.70;3.73;;;;;;;;;;4995994;28;20588;-83
2023/10/11 15:06:37;;;;;;;8.90;3.63;;;;;;;;;;5016785;28;20784;-83
2023/10/11 15:09:08;;;;;;;8.00;3.50;;;;;;;;;;5017564;28;20248;-83
2023/10/11 15:11:35;;;;;;;9.53;3.40;;;;;;;;;;4997756;28;20214;-83
2023/10/11 15:14:07;;;;;;;8.50;3.80;;;;;;;;;;4983577;28;20187;-83
2023/10/11 15:16:36;;;;;;;11.07;3.50;;;;;;;;;;4977925;28;20186;-83
2023/10/11 15:19:03;;;;;;;8.67;3.60;;;;;;;;;;4999417;28;20693;-84
2023/10/11 15:21:29;;;;;;;9.53;3.50;;;;;;;;;;5025970;28;20207;-84
2023/10/11 15:23:56;;;;;;;10.57;3.90;;;;;;;;;;4980515;28;20209;-84
2023/10/11 15:26:22;;;;;;;8.23;3.50;;;;;;;;;;4990633;28;20187;-84
2023/10/11 15:28:49;;;;;;;8.07;3.93;;;;;;;;;;4972764;28;20278;-84
2023/10/11 15:31:16;;;;;;;10.83;3.20;;;;;;;;;;5014999;28;20294;-84
2023/10/11 15:33:45;;;;;;;8.10;3.23;;;;;;;;;;4984883;28;20561;-83
2023/10/11 15:36:11;;;;;;;8.20;3.33;;;;;;;;;;4981289;28;20265;-84
2023/10/11 15:38:37;;;;;;;11.17;3.53;;;;;;;;;;5002314;28;20232;-84
2023/10/11 15:41:04;;;;;;;10.93;3.93;;;;;;;;;;5019071;28;20209;-84
2023/10/11 15:43:34;;;;;;;9.00;3.80;;;;;;;;;;5018219;28;20212;-83
2023/10/11 15:46:04;;;;;;;7.77;3.57;;;;;;;;;;5019876;28;20709;-84
2023/10/11 15:48:30;;;;;;;10.40;3.80;;;;;;;;;;4993300;28;20269;-83